EZY618Y EGJJ-EGPH
Flight info
| Callsign | EZY618Y |
|---|---|
| Flight time | 1h 13m |
| Altitude | 36000 |
| Route | SKERY L22 EMWIP P16 FIMCA/N0437F370 DCT BHD DCT WIGGU DCT AZCAL DCT AVTIC DCT ANJAK/N0437F380 N38 NOKIN UP16 RIBEL DCT INPIP |
| Aircraft | A320/M-SDE2E3FGHIJ1RWXYZ/LB1 |
Departure
| Time | 2026-05-04 18:35 |
|---|---|
| Airport | Jersey Airport (EGJJ) |
Arrival
| Time | 2026-05-04 19:49 |
|---|---|
| Airport | Edinburgh Airport (EGPH) |
| Time | Latitude | Longitude | Altitude | Speed | Heading |
|---|---|---|---|---|---|
| 2026-05-04 18:06 | 49.20498 | -2.19677 | 284 ft | 0 kts | 5° |
| 2026-05-04 18:26 | 49.20482 | -2.19678 | 284 ft | 3 kts | 358° |
| 2026-05-04 18:26 | 49.20462 | -2.19675 | 284 ft | 3 kts | 340° |
| 2026-05-04 18:26 | 49.20446 | -2.19661 | 284 ft | 3 kts | 308° |
| 2026-05-04 18:27 | 49.20439 | -2.19643 | 284 ft | 0 kts | 284° |
| 2026-05-04 18:29 | 49.20443 | -2.19674 | 284 ft | 7 kts | 275° |
| 2026-05-04 18:29 | 49.20437 | -2.19776 | 284 ft | 10 kts | 264° |
| 2026-05-04 18:30 | 49.20475 | -2.19924 | 284 ft | 10 kts | 346° |
| 2026-05-04 18:30 | 49.20527 | -2.20032 | 284 ft | 16 kts | 285° |
| 2026-05-04 18:30 | 49.20560 | -2.20197 | 284 ft | 17 kts | 287° |
| 2026-05-04 18:31 | 49.20593 | -2.20372 | 284 ft | 18 kts | 286° |
| 2026-05-04 18:31 | 49.20622 | -2.20525 | 284 ft | 0 kts | 286° |
| 2026-05-04 18:33 | 49.20624 | -2.20533 | 284 ft | 6 kts | 286° |
| 2026-05-04 18:34 | 49.20632 | -2.20666 | 284 ft | 12 kts | 286° |
| 2026-05-04 18:34 | 49.20697 | -2.20685 | 283 ft | 11 kts | 45° |
| 2026-05-04 18:34 | 49.20707 | -2.20641 | 283 ft | 0 kts | 81° |
| 2026-05-04 18:35 | 49.20708 | -2.20631 | 283 ft | 6 kts | 82° |
| 2026-05-04 18:35 | 49.20743 | -2.20211 | 282 ft | 83 kts | 83° |
| 2026-05-04 18:35 | 49.20852 | -2.18938 | 414 ft | 140 kts | 83° |
| 2026-05-04 18:35 | 49.20947 | -2.17488 | 1172 ft | 140 kts | 82° |
| 2026-05-04 18:36 | 49.21072 | -2.15931 | 1636 ft | 157 kts | 82° |
| 2026-05-04 18:36 | 49.21229 | -2.14113 | 1846 ft | 186 kts | 81° |
| 2026-05-04 18:36 | 49.21421 | -2.12035 | 2177 ft | 208 kts | 78° |
| 2026-05-04 18:36 | 49.21974 | -2.09869 | 2549 ft | 231 kts | 57° |
| 2026-05-04 18:37 | 49.23128 | -2.08008 | 3063 ft | 252 kts | 34° |
| 2026-05-04 18:37 | 49.24759 | -2.06958 | 3918 ft | 259 kts | 10° |
| 2026-05-04 18:37 | 49.26574 | -2.06987 | 4682 ft | 267 kts | 346° |
| 2026-05-04 18:37 | 49.28236 | -2.08249 | 5576 ft | 271 kts | 321° |
| 2026-05-04 18:38 | 49.29522 | -2.10324 | 6485 ft | 274 kts | 311° |
| 2026-05-04 18:38 | 49.30791 | -2.12579 | 7398 ft | 278 kts | 311° |
| 2026-05-04 18:38 | 49.32038 | -2.14818 | 8248 ft | 282 kts | 311° |
| 2026-05-04 18:38 | 49.33316 | -2.17118 | 9089 ft | 286 kts | 311° |
| 2026-05-04 18:39 | 49.34618 | -2.19453 | 9925 ft | 290 kts | 311° |
| 2026-05-04 18:39 | 49.35909 | -2.21922 | 10407 ft | 308 kts | 306° |
| 2026-05-04 18:39 | 49.37226 | -2.24662 | 10803 ft | 326 kts | 306° |
| 2026-05-04 18:39 | 49.38586 | -2.27494 | 11506 ft | 332 kts | 306° |
| 2026-05-04 18:40 | 49.39967 | -2.30369 | 12267 ft | 337 kts | 306° |
| 2026-05-04 18:40 | 49.41466 | -2.33150 | 13018 ft | 340 kts | 313° |
| 2026-05-04 18:40 | 49.43176 | -2.35682 | 13727 ft | 344 kts | 318° |
| 2026-05-04 18:40 | 49.45012 | -2.38085 | 14421 ft | 348 kts | 321° |
| 2026-05-04 18:41 | 49.46900 | -2.40455 | 15100 ft | 352 kts | 321° |
| 2026-05-04 18:41 | 49.48781 | -2.42900 | 15764 ft | 356 kts | 319° |
| 2026-05-04 18:41 | 49.50646 | -2.45439 | 16411 ft | 360 kts | 318° |
| 2026-05-04 18:41 | 49.52504 | -2.48059 | 17040 ft | 364 kts | 317° |
| 2026-05-04 18:42 | 49.54359 | -2.50738 | 17639 ft | 367 kts | 317° |
| 2026-05-04 18:42 | 49.56225 | -2.53457 | 18243 ft | 371 kts | 317° |
| 2026-05-04 18:42 | 49.58109 | -2.56206 | 18834 ft | 375 kts | 317° |
| 2026-05-04 18:42 | 49.60014 | -2.58978 | 19398 ft | 378 kts | 317° |
| 2026-05-04 18:43 | 49.61943 | -2.61768 | 19958 ft | 382 kts | 317° |
| 2026-05-04 18:43 | 49.63894 | -2.64583 | 20517 ft | 386 kts | 317° |
| 2026-05-04 18:43 | 49.65860 | -2.67421 | 21053 ft | 389 kts | 317° |
| 2026-05-04 18:43 | 49.67844 | -2.70288 | 21589 ft | 393 kts | 316° |
| 2026-05-04 18:44 | 49.69844 | -2.73188 | 22112 ft | 396 kts | 316° |
| 2026-05-04 18:44 | 49.70497 | -2.74135 | 22282 ft | 397 kts | 316° |
| 2026-05-04 18:44 | 49.73895 | -2.79071 | 23132 ft | 403 kts | 316° |
| 2026-05-04 18:44 | 49.75945 | -2.82050 | 23623 ft | 406 kts | 316° |
| 2026-05-04 18:45 | 49.78012 | -2.85055 | 24104 ft | 409 kts | 316° |
| 2026-05-04 18:45 | 49.80094 | -2.88086 | 24559 ft | 413 kts | 316° |
| 2026-05-04 18:45 | 49.82190 | -2.91144 | 24994 ft | 415 kts | 316° |
| 2026-05-04 18:45 | 49.84299 | -2.94225 | 25438 ft | 418 kts | 316° |
| 2026-05-04 18:46 | 49.86388 | -2.97288 | 25856 ft | 421 kts | 316° |
| 2026-05-04 18:46 | 49.88521 | -3.00419 | 26266 ft | 423 kts | 316° |
| 2026-05-04 18:46 | 49.90665 | -3.03565 | 26655 ft | 426 kts | 315° |
| 2026-05-04 18:46 | 49.92820 | -3.06734 | 27033 ft | 428 kts | 315° |
| 2026-05-04 18:47 | 49.94989 | -3.09927 | 27404 ft | 430 kts | 315° |
| 2026-05-04 18:47 | 49.97167 | -3.13132 | 27765 ft | 433 kts | 315° |
| 2026-05-04 18:47 | 49.99297 | -3.16451 | 28120 ft | 434 kts | 310° |
| 2026-05-04 18:47 | 50.01108 | -3.20207 | 28458 ft | 435 kts | 300° |
| 2026-05-04 18:48 | 50.02654 | -3.24259 | 28810 ft | 436 kts | 299° |
| 2026-05-04 18:48 | 50.04373 | -3.28165 | 29145 ft | 439 kts | 308° |
| 2026-05-04 18:48 | 50.06486 | -3.31615 | 29466 ft | 442 kts | 318° |
| 2026-05-04 18:48 | 50.08943 | -3.34510 | 29774 ft | 445 kts | 327° |
| 2026-05-04 18:49 | 50.11669 | -3.36832 | 30074 ft | 447 kts | 333° |
| 2026-05-04 18:49 | 50.14444 | -3.39045 | 30374 ft | 449 kts | 332° |
| 2026-05-04 18:49 | 50.17227 | -3.41280 | 30657 ft | 451 kts | 332° |
| 2026-05-04 18:49 | 50.20020 | -3.43536 | 30924 ft | 453 kts | 332° |
| 2026-05-04 18:50 | 50.22823 | -3.45805 | 31193 ft | 454 kts | 332° |
| 2026-05-04 18:50 | 50.25711 | -3.47830 | 31451 ft | 456 kts | 340° |
| 2026-05-04 18:50 | 50.28765 | -3.49148 | 31758 ft | 456 kts | 349° |
| 2026-05-04 18:50 | 50.31907 | -3.49724 | 32110 ft | 454 kts | 359° |
| 2026-05-04 18:51 | 50.35055 | -3.49643 | 32460 ft | 452 kts | 2° |
| 2026-05-04 18:51 | 50.38195 | -3.49462 | 32804 ft | 451 kts | 2° |
| 2026-05-04 18:51 | 50.41331 | -3.49222 | 33149 ft | 450 kts | 5° |
| 2026-05-04 18:51 | 50.44448 | -3.48783 | 33488 ft | 449 kts | 7° |
| 2026-05-04 18:52 | 50.47544 | -3.48190 | 33824 ft | 448 kts | 8° |
| 2026-05-04 18:52 | 50.50626 | -3.47519 | 34169 ft | 447 kts | 8° |
| 2026-05-04 18:52 | 50.53699 | -3.46836 | 34489 ft | 446 kts | 8° |
| 2026-05-04 18:52 | 50.56771 | -3.46175 | 34779 ft | 445 kts | 8° |
| 2026-05-04 18:53 | 50.59846 | -3.45548 | 35053 ft | 445 kts | 7° |
| 2026-05-04 18:53 | 50.62923 | -3.44953 | 35320 ft | 445 kts | 7° |
| 2026-05-04 18:53 | 50.65993 | -3.44375 | 35574 ft | 445 kts | 7° |
| 2026-05-04 18:53 | 50.69065 | -3.43802 | 35822 ft | 445 kts | 7° |
| 2026-05-04 18:54 | 50.72141 | -3.43228 | 35968 ft | 445 kts | 7° |
| 2026-05-04 18:54 | 50.78234 | -3.42075 | 35998 ft | 439 kts | 7° |
| 2026-05-04 18:55 | 50.83270 | -3.41109 | 36001 ft | 438 kts | 7° |
| 2026-05-04 18:55 | 50.92346 | -3.39362 | 36009 ft | 438 kts | 7° |
| 2026-05-04 18:56 | 50.98394 | -3.38190 | 36007 ft | 437 kts | 7° |
| 2026-05-04 18:56 | 51.04431 | -3.37010 | 36006 ft | 437 kts | 7° |
| 2026-05-04 18:57 | 51.10467 | -3.35832 | 36005 ft | 437 kts | 7° |
| 2026-05-04 18:57 | 51.16499 | -3.34656 | 36010 ft | 437 kts | 7° |
| 2026-05-04 18:58 | 51.22526 | -3.33474 | 36009 ft | 436 kts | 7° |
| 2026-05-04 18:58 | 51.28548 | -3.32262 | 36013 ft | 436 kts | 7° |
| 2026-05-04 18:59 | 51.34564 | -3.31044 | 36014 ft | 436 kts | 7° |
| 2026-05-04 18:59 | 51.40583 | -3.29821 | 36015 ft | 436 kts | 7° |
| 2026-05-04 19:00 | 51.46594 | -3.28595 | 36015 ft | 435 kts | 7° |
| 2026-05-04 19:00 | 51.52605 | -3.27368 | 36016 ft | 435 kts | 7° |
| 2026-05-04 19:01 | 51.58601 | -3.26153 | 36017 ft | 435 kts | 7° |
| 2026-05-04 19:01 | 51.64612 | -3.24926 | 36018 ft | 435 kts | 7° |
| 2026-05-04 19:02 | 51.70588 | -3.23698 | 36021 ft | 435 kts | 7° |
| 2026-05-04 19:02 | 51.76595 | -3.22453 | 36022 ft | 435 kts | 7° |
| 2026-05-04 19:03 | 51.82604 | -3.21209 | 36023 ft | 435 kts | 7° |
| 2026-05-04 19:03 | 51.88613 | -3.19963 | 36026 ft | 435 kts | 7° |
| 2026-05-04 19:04 | 51.94643 | -3.18990 | 36028 ft | 435 kts | 3° |
| 2026-05-04 19:04 | 52.00697 | -3.18611 | 36032 ft | 436 kts | 1° |
| 2026-05-04 19:05 | 52.06753 | -3.18335 | 36041 ft | 435 kts | 2° |
| 2026-05-04 19:05 | 52.12809 | -3.17926 | 36050 ft | 435 kts | 3° |
| 2026-05-04 19:06 | 52.18844 | -3.17429 | 36054 ft | 434 kts | 3° |
| 2026-05-04 19:06 | 52.24873 | -3.16926 | 36053 ft | 434 kts | 3° |
| 2026-05-04 19:07 | 52.30897 | -3.16455 | 36053 ft | 433 kts | 2° |
| 2026-05-04 19:07 | 52.36925 | -3.16006 | 36056 ft | 433 kts | 2° |
| 2026-05-04 19:08 | 52.42943 | -3.15550 | 36056 ft | 433 kts | 2° |
| 2026-05-04 19:08 | 52.48961 | -3.15083 | 36055 ft | 433 kts | 3° |
| 2026-05-04 19:09 | 52.54930 | -3.14607 | 36062 ft | 432 kts | 3° |
| 2026-05-04 19:09 | 52.60978 | -3.14131 | 36053 ft | 432 kts | 2° |
| 2026-05-04 19:10 | 52.66977 | -3.13660 | 36052 ft | 432 kts | 3° |
| 2026-05-04 19:10 | 52.72850 | -3.12170 | 36053 ft | 431 kts | 18° |
| 2026-05-04 19:11 | 52.78326 | -3.08187 | 36045 ft | 430 kts | 25° |
| 2026-05-04 19:11 | 52.83738 | -3.03959 | 36044 ft | 430 kts | 25° |
| 2026-05-04 19:12 | 52.91941 | -2.97922 | 36048 ft | 430 kts | 20° |
| 2026-05-04 19:13 | 52.97565 | -2.94492 | 36050 ft | 430 kts | 20° |
| 2026-05-04 19:13 | 53.03180 | -2.91056 | 36045 ft | 430 kts | 20° |
| 2026-05-04 19:14 | 53.08795 | -2.87599 | 36056 ft | 430 kts | 20° |
| 2026-05-04 19:14 | 53.14406 | -2.84132 | 36063 ft | 430 kts | 20° |
| 2026-05-04 19:15 | 53.20018 | -2.80653 | 36060 ft | 431 kts | 20° |
| 2026-05-04 19:15 | 53.25634 | -2.77165 | 36065 ft | 430 kts | 20° |
| 2026-05-04 19:16 | 53.31247 | -2.73674 | 36071 ft | 430 kts | 20° |
| 2026-05-04 19:16 | 53.36846 | -2.70179 | 36076 ft | 430 kts | 20° |
| 2026-05-04 19:17 | 53.42445 | -2.66667 | 36082 ft | 429 kts | 20° |
| 2026-05-04 19:17 | 53.48006 | -2.63173 | 36085 ft | 429 kts | 20° |
| 2026-05-04 19:18 | 53.53628 | -2.59620 | 36082 ft | 429 kts | 20° |
| 2026-05-04 19:18 | 53.59177 | -2.56122 | 36082 ft | 429 kts | 20° |
| 2026-05-04 19:19 | 53.64760 | -2.52583 | 36081 ft | 428 kts | 20° |
| 2026-05-04 19:19 | 53.70376 | -2.49013 | 36083 ft | 428 kts | 20° |
| 2026-05-04 19:20 | 53.75943 | -2.45460 | 36084 ft | 428 kts | 20° |
| 2026-05-04 19:20 | 53.81491 | -2.41914 | 36083 ft | 428 kts | 20° |
| 2026-05-04 19:21 | 53.87064 | -2.38357 | 36080 ft | 428 kts | 20° |
| 2026-05-04 19:21 | 53.92633 | -2.34775 | 36080 ft | 428 kts | 21° |
| 2026-05-04 19:22 | 53.98263 | -2.31557 | 36077 ft | 427 kts | 10° |
| 2026-05-04 19:22 | 54.04164 | -2.31441 | 36071 ft | 426 kts | 349° |
| 2026-05-04 19:23 | 54.09772 | -2.34591 | 36059 ft | 425 kts | 338° |
| 2026-05-04 19:23 | 54.15265 | -2.38396 | 36049 ft | 426 kts | 338° |
| 2026-05-04 19:24 | 54.20747 | -2.42214 | 36053 ft | 426 kts | 338° |
| 2026-05-04 19:24 | 54.26232 | -2.46047 | 36054 ft | 426 kts | 338° |
| 2026-05-04 19:25 | 54.31723 | -2.49872 | 36047 ft | 426 kts | 338° |
| 2026-05-04 19:25 | 54.37213 | -2.53721 | 36023 ft | 428 kts | 338° |
| 2026-05-04 19:26 | 54.42735 | -2.57599 | 35851 ft | 430 kts | 338° |
| 2026-05-04 19:26 | 54.45534 | -2.59571 | 34777 ft | 440 kts | 337° |
| 2026-05-04 19:26 | 54.48368 | -2.61574 | 34031 ft | 440 kts | 338° |
| 2026-05-04 19:26 | 54.51192 | -2.63568 | 33430 ft | 437 kts | 338° |
| 2026-05-04 19:27 | 54.53992 | -2.65549 | 32867 ft | 433 kts | 338° |
| 2026-05-04 19:27 | 54.56762 | -2.67511 | 32311 ft | 428 kts | 338° |
| 2026-05-04 19:27 | 54.59502 | -2.69456 | 31769 ft | 424 kts | 337° |
| 2026-05-04 19:27 | 54.62224 | -2.71394 | 31225 ft | 420 kts | 337° |
| 2026-05-04 19:28 | 54.64915 | -2.73314 | 30678 ft | 417 kts | 337° |
| 2026-05-04 19:28 | 54.67588 | -2.75216 | 30148 ft | 413 kts | 339° |
| 2026-05-04 19:28 | 54.70341 | -2.76540 | 29621 ft | 410 kts | 348° |
| 2026-05-04 19:28 | 54.73123 | -2.77552 | 29079 ft | 407 kts | 348° |
| 2026-05-04 19:29 | 54.75885 | -2.78549 | 28546 ft | 404 kts | 348° |
| 2026-05-04 19:29 | 54.78632 | -2.79534 | 28019 ft | 401 kts | 348° |
| 2026-05-04 19:29 | 54.81353 | -2.80509 | 27491 ft | 398 kts | 347° |
| 2026-05-04 19:29 | 54.84060 | -2.81482 | 26973 ft | 396 kts | 347° |
| 2026-05-04 19:30 | 54.86747 | -2.82449 | 26456 ft | 393 kts | 347° |
| 2026-05-04 19:30 | 54.89414 | -2.83409 | 25947 ft | 390 kts | 347° |
| 2026-05-04 19:30 | 54.92068 | -2.84367 | 25437 ft | 388 kts | 347° |
| 2026-05-04 19:30 | 54.94702 | -2.85323 | 24936 ft | 385 kts | 347° |
| 2026-05-04 19:31 | 54.97314 | -2.86276 | 24447 ft | 383 kts | 347° |
| 2026-05-04 19:31 | 54.99877 | -2.87212 | 23949 ft | 380 kts | 347° |
| 2026-05-04 19:31 | 55.02491 | -2.88169 | 23452 ft | 378 kts | 347° |
| 2026-05-04 19:31 | 55.05054 | -2.89108 | 22964 ft | 375 kts | 347° |
| 2026-05-04 19:32 | 55.07600 | -2.90036 | 22487 ft | 372 kts | 347° |
| 2026-05-04 19:32 | 55.10131 | -2.90958 | 22033 ft | 370 kts | 347° |
| 2026-05-04 19:32 | 55.12606 | -2.91862 | 21590 ft | 367 kts | 347° |
| 2026-05-04 19:32 | 55.15097 | -2.92771 | 21132 ft | 364 kts | 347° |
| 2026-05-04 19:33 | 55.17571 | -2.93675 | 20680 ft | 362 kts | 347° |
| 2026-05-04 19:33 | 55.20025 | -2.94574 | 20228 ft | 359 kts | 346° |
| 2026-05-04 19:33 | 55.22463 | -2.95476 | 19780 ft | 357 kts | 346° |
| 2026-05-04 19:33 | 55.24884 | -2.96374 | 19337 ft | 354 kts | 346° |
| 2026-05-04 19:34 | 55.27289 | -2.97263 | 18901 ft | 352 kts | 346° |
| 2026-05-04 19:34 | 55.29678 | -2.98142 | 18460 ft | 349 kts | 346° |
| 2026-05-04 19:34 | 55.32049 | -2.99014 | 18037 ft | 347 kts | 346° |
| 2026-05-04 19:34 | 55.34402 | -2.99883 | 17613 ft | 345 kts | 346° |
| 2026-05-04 19:35 | 55.36742 | -3.00751 | 17186 ft | 342 kts | 346° |
| 2026-05-04 19:35 | 55.39065 | -3.01613 | 16769 ft | 340 kts | 346° |
| 2026-05-04 19:35 | 55.41375 | -3.02473 | 16352 ft | 338 kts | 346° |
| 2026-05-04 19:35 | 55.43671 | -3.03329 | 15942 ft | 336 kts | 346° |
| 2026-05-04 19:36 | 55.45951 | -3.04180 | 15533 ft | 334 kts | 346° |
| 2026-05-04 19:36 | 55.48220 | -3.05028 | 15141 ft | 332 kts | 346° |
| 2026-05-04 19:36 | 55.50476 | -3.05868 | 14741 ft | 330 kts | 346° |
| 2026-05-04 19:36 | 55.52717 | -3.06698 | 14337 ft | 328 kts | 346° |
| 2026-05-04 19:37 | 55.54943 | -3.07526 | 13935 ft | 326 kts | 346° |
| 2026-05-04 19:37 | 55.56426 | -3.08079 | 13662 ft | 325 kts | 346° |
| 2026-05-04 19:37 | 55.58629 | -3.08906 | 13267 ft | 323 kts | 346° |
| 2026-05-04 19:37 | 55.60813 | -3.09772 | 12748 ft | 322 kts | 342° |
| 2026-05-04 19:38 | 55.62860 | -3.11499 | 11870 ft | 332 kts | 327° |
| 2026-05-04 19:38 | 55.64894 | -3.13269 | 11006 ft | 343 kts | 342° |
| 2026-05-04 19:38 | 55.67290 | -3.13688 | 10126 ft | 353 kts | 4° |
| 2026-05-04 19:38 | 55.69660 | -3.12494 | 9246 ft | 360 kts | 25° |
| 2026-05-04 19:39 | 55.71844 | -3.10265 | 8358 ft | 363 kts | 30° |
| 2026-05-04 19:39 | 55.74031 | -3.07974 | 7497 ft | 366 kts | 30° |
| 2026-05-04 19:39 | 55.76184 | -3.05714 | 7146 ft | 351 kts | 30° |
| 2026-05-04 19:39 | 55.78229 | -3.03564 | 7010 ft | 332 kts | 30° |
| 2026-05-04 19:40 | 55.80151 | -3.01532 | 7024 ft | 311 kts | 30° |
| 2026-05-04 19:40 | 55.81960 | -2.99612 | 6913 ft | 295 kts | 30° |
| 2026-05-04 19:40 | 55.83684 | -2.97777 | 6780 ft | 282 kts | 30° |
| 2026-05-04 19:40 | 55.85326 | -2.96024 | 6610 ft | 270 kts | 30° |
| 2026-05-04 19:41 | 55.86940 | -2.94297 | 6164 ft | 270 kts | 30° |
| 2026-05-04 19:41 | 55.88548 | -2.92576 | 5731 ft | 269 kts | 30° |
| 2026-05-04 19:41 | 55.90150 | -2.90861 | 5302 ft | 268 kts | 30° |
| 2026-05-04 19:41 | 55.91743 | -2.89157 | 4983 ft | 267 kts | 28° |
| 2026-05-04 19:42 | 55.93477 | -2.88094 | 4731 ft | 264 kts | 2° |
| 2026-05-04 19:42 | 55.95236 | -2.88598 | 4488 ft | 261 kts | 336° |
| 2026-05-04 19:42 | 55.96857 | -2.90033 | 4234 ft | 257 kts | 330° |
| 2026-05-04 19:42 | 55.98400 | -2.91545 | 3976 ft | 249 kts | 330° |
| 2026-05-04 19:43 | 55.99893 | -2.93021 | 3733 ft | 242 kts | 330° |
| 2026-05-04 19:43 | 56.01347 | -2.94456 | 3477 ft | 235 kts | 329° |
| 2026-05-04 19:43 | 56.02762 | -2.95851 | 3221 ft | 230 kts | 330° |
| 2026-05-04 19:43 | 56.04144 | -2.97208 | 3043 ft | 221 kts | 330° |
| 2026-05-04 19:44 | 56.05373 | -2.98692 | 2991 ft | 205 kts | 309° |
| 2026-05-04 19:44 | 56.05940 | -3.00952 | 3004 ft | 202 kts | 278° |
| 2026-05-04 19:44 | 56.05955 | -3.03420 | 3028 ft | 195 kts | 262° |
| 2026-05-04 19:44 | 56.05574 | -3.05721 | 3000 ft | 192 kts | 245° |
| 2026-05-04 19:45 | 56.04909 | -3.07781 | 2995 ft | 191 kts | 240° |
| 2026-05-04 19:45 | 56.04229 | -3.09818 | 3001 ft | 191 kts | 240° |
| 2026-05-04 19:45 | 56.03546 | -3.11861 | 2997 ft | 192 kts | 240° |
| 2026-05-04 19:45 | 56.02860 | -3.13908 | 2847 ft | 192 kts | 240° |
| 2026-05-04 19:46 | 56.02175 | -3.15947 | 2623 ft | 191 kts | 240° |
| 2026-05-04 19:46 | 56.01493 | -3.17980 | 2379 ft | 190 kts | 240° |
| 2026-05-04 19:46 | 56.00818 | -3.19991 | 2129 ft | 186 kts | 240° |
| 2026-05-04 19:46 | 56.00162 | -3.21940 | 1885 ft | 181 kts | 240° |
| 2026-05-04 19:47 | 55.99524 | -3.23838 | 1647 ft | 171 kts | 240° |
| 2026-05-04 19:47 | 55.98936 | -3.25583 | 1428 ft | 157 kts | 240° |
| 2026-05-04 19:47 | 55.98393 | -3.27192 | 1228 ft | 147 kts | 240° |
| 2026-05-04 19:47 | 55.97876 | -3.28727 | 1041 ft | 143 kts | 240° |
| 2026-05-04 19:48 | 55.97382 | -3.30190 | 861 ft | 142 kts | 240° |
| 2026-05-04 19:48 | 55.96855 | -3.31750 | 667 ft | 141 kts | 239° |
| 2026-05-04 19:48 | 55.96355 | -3.33259 | 484 ft | 143 kts | 241° |
| 2026-05-04 19:48 | 55.95836 | -3.34816 | 308 ft | 148 kts | 237° |
| 2026-05-04 19:49 | 55.95300 | -3.36361 | 117 ft | 141 kts | 239° |
| 2026-05-04 19:49 | 55.94889 | -3.37583 | 114 ft | 82 kts | 238° |
| 2026-05-04 19:49 | 55.94726 | -3.38040 | 115 ft | 15 kts | 224° |
| 2026-05-04 19:49 | 55.94643 | -3.38005 | 115 ft | 11 kts | 152° |
| 2026-05-04 19:50 | 55.94594 | -3.37926 | 113 ft | 9 kts | 109° |
| 2026-05-04 19:50 | 55.94608 | -3.37833 | 116 ft | 9 kts | 67° |
| 2026-05-04 19:50 | 55.94684 | -3.37612 | 114 ft | 32 kts | 58° |
| 2026-05-04 19:50 | 55.94801 | -3.37269 | 113 ft | 30 kts | 58° |
| 2026-05-04 19:51 | 55.94907 | -3.36956 | 116 ft | 20 kts | 59° |
| 2026-05-04 19:51 | 55.94913 | -3.36802 | 113 ft | 11 kts | 113° |
| 2026-05-04 19:51 | 55.94912 | -3.36703 | 116 ft | 7 kts | 68° |
| 2026-05-04 19:51 | 55.94938 | -3.36620 | 116 ft | 7 kts | 59° |
| 2026-05-04 19:52 | 55.94964 | -3.36545 | 116 ft | 7 kts | 59° |
| 2026-05-04 19:52 | 55.94986 | -3.36480 | 114 ft | 6 kts | 59° |
| 2026-05-04 19:52 | 55.95005 | -3.36423 | 116 ft | 5 kts | 58° |
| 2026-05-04 19:52 | 55.95022 | -3.36374 | 116 ft | 4 kts | 63° |
| 2026-05-04 19:53 | 55.95019 | -3.36323 | 116 ft | 4 kts | 110° |
| 2026-05-04 19:53 | 55.95007 | -3.36276 | 116 ft | 4 kts | 118° |
| 2026-05-04 19:53 | 55.94997 | -3.36243 | 113 ft | 1 kts | 115° |
| 2026-05-04 19:53 | 55.94995 | -3.36234 | 113 ft | 0 kts | 115° |